createdAt,value
2017-11-22T00:01:47.374Z,4.32
2017-11-22T00:04:14.951Z,5.07
2017-11-22T00:06:42.596Z,5.40
2017-11-22T00:09:10.087Z,11.00
2017-11-22T00:11:38.340Z,5.55
2017-11-22T00:14:05.813Z,4.55
2017-11-22T00:16:34.163Z,4.60
2017-11-22T00:19:01.730Z,4.57
2017-11-22T00:21:29.419Z,4.57
2017-11-22T00:23:57.762Z,4.68
2017-11-22T00:26:25.392Z,5.32
2017-11-22T00:28:52.865Z,4.50
2017-11-22T00:31:20.355Z,5.10
2017-11-22T00:33:47.912Z,5.47
2017-11-22T00:36:15.434Z,5.28
2017-11-22T00:38:43.010Z,5.35
2017-11-22T00:41:10.577Z,5.82
2017-11-22T00:43:38.077Z,5.35
2017-11-22T00:46:05.543Z,5.15
2017-11-22T00:48:33.019Z,4.72
2017-11-22T00:51:00.599Z,4.32
2017-11-22T00:53:28.247Z,6.82
2017-11-22T00:55:55.881Z,4.50
2017-11-22T00:58:23.338Z,4.78
2017-11-22T01:00:50.829Z,5.45
2017-11-22T01:03:18.392Z,4.97
2017-11-22T01:05:45.956Z,4.78
2017-11-22T01:08:13.560Z,5.03
2017-11-22T01:10:41.995Z,5.18
2017-11-22T01:13:09.556Z,4.47
2017-11-22T01:15:37.855Z,5.30
2017-11-22T01:18:05.384Z,4.00
2017-11-22T01:20:32.874Z,4.57
2017-11-22T01:23:01.124Z,7.35
2017-11-22T01:25:28.600Z,4.87
2017-11-22T01:27:56.979Z,4.78
2017-11-22T01:30:25.326Z,6.10
2017-11-22T01:32:52.979Z,4.82
2017-11-22T01:35:20.584Z,4.93
2017-11-22T01:37:48.819Z,4.65
2017-11-22T01:40:16.309Z,5.93
2017-11-22T01:42:44.563Z,6.45
2017-11-22T01:45:12.119Z,5.03
2017-11-22T01:47:39.654Z,5.30
2017-11-22T01:50:07.226Z,5.90
2017-11-22T01:52:34.885Z,5.45
2017-11-22T01:55:02.491Z,4.35
2017-11-22T01:57:30.724Z,5.18
2017-11-22T01:59:58.186Z,5.05
2017-11-22T02:02:25.667Z,5.25
2017-11-22T02:04:53.915Z,4.43
2017-11-22T02:07:21.387Z,5.30
2017-11-22T02:09:48.951Z,5.25
2017-11-22T02:12:16.493Z,5.35
2017-11-22T02:14:44.050Z,4.72
2017-11-22T02:17:11.527Z,5.20
2017-11-22T02:19:39.774Z,5.10
2017-11-22T02:22:07.344Z,4.28
2017-11-22T02:24:34.904Z,5.45
2017-11-22T02:27:02.426Z,5.37
2017-11-22T02:29:29.895Z,5.10
2017-11-22T02:31:57.463Z,6.45
2017-11-22T02:34:24.960Z,5.28
2017-11-22T02:36:52.497Z,6.20
2017-11-22T02:39:20.428Z,4.37
2017-11-22T02:41:48.271Z,4.07
2017-11-22T02:44:16.688Z,4.85
2017-11-22T02:46:44.278Z,4.70
2017-11-22T02:49:11.747Z,8.82
2017-11-22T02:51:40.087Z,4.85
2017-11-22T02:54:07.571Z,4.30
2017-11-22T02:56:35.915Z,5.12
2017-11-22T02:59:03.407Z,4.70
2017-11-22T03:01:31.665Z,4.47
2017-11-22T03:03:59.175Z,6.05
2017-11-22T03:06:26.652Z,4.40
2017-11-22T03:08:54.222Z,5.32
2017-11-22T03:11:21.709Z,4.15
2017-11-22T03:13:49.186Z,4.78
2017-11-22T03:16:16.748Z,4.40
2017-11-22T03:18:44.300Z,7.10
2017-11-22T03:21:12.614Z,5.12
2017-11-22T03:23:40.075Z,5.80
2017-11-22T03:26:07.550Z,4.00
2017-11-22T03:28:35.032Z,4.40
2017-11-22T03:31:02.541Z,4.43
2017-11-22T03:33:30.233Z,6.30
2017-11-22T03:35:57.793Z,4.50
2017-11-22T03:38:25.259Z,4.82
2017-11-22T03:40:52.813Z,4.65
2017-11-22T03:43:20.291Z,5.30
2017-11-22T03:45:48.583Z,5.70
2017-11-22T03:48:16.167Z,4.10
2017-11-22T03:50:49.348Z,4.85
2017-11-22T03:53:22.383Z,4.47
2017-11-22T03:55:49.895Z,4.50
2017-11-22T03:58:17.562Z,4.60
2017-11-22T04:00:45.080Z,5.72
2017-11-22T04:03:12.578Z,4.50
2017-11-22T04:05:45.687Z,5.30
2017-11-22T04:08:18.024Z,4.60
2017-11-22T04:10:48.384Z,3.58
2017-11-22T04:13:15.942Z,4.50
2017-11-22T04:15:43.417Z,3.78
2017-11-22T04:18:10.883Z,5.70
2017-11-22T04:20:44.030Z,6.53
2017-11-22T04:23:11.591Z,3.90
2017-11-22T04:25:39.146Z,7.15
2017-11-22T04:28:06.624Z,4.20
2017-11-22T04:30:34.095Z,4.70
2017-11-22T04:33:01.587Z,4.28
2017-11-22T04:35:29.165Z,4.87
2017-11-22T04:37:56.855Z,7.37
2017-11-22T04:40:24.488Z,5.65
2017-11-22T04:42:51.944Z,5.07
2017-11-22T04:45:19.436Z,8.68
2017-11-22T04:47:46.994Z,6.62
2017-11-22T04:50:14.519Z,6.30
2017-11-22T04:52:42.096Z,4.80
2017-11-22T04:55:09.681Z,5.20
2017-11-22T04:57:37.939Z,5.05
2017-11-22T05:00:05.415Z,4.35
2017-11-22T05:02:32.963Z,5.68
2017-11-22T05:05:00.438Z,6.90
2017-11-22T05:07:28.736Z,4.93
2017-11-22T05:09:57.371Z,5.95
2017-11-22T05:12:25.030Z,5.12
2017-11-22T05:14:52.697Z,5.30
2017-11-22T05:17:20.134Z,5.78
2017-11-22T05:19:47.619Z,7.07
2017-11-22T05:22:15.091Z,5.68
2017-11-22T05:24:43.530Z,4.72
2017-11-22T05:27:11.379Z,5.07
2017-11-22T05:29:39.037Z,6.37
2017-11-22T05:32:06.788Z,4.80
2017-11-22T05:34:34.278Z,5.40
2017-11-22T05:37:01.759Z,4.43
2017-11-22T05:39:29.231Z,4.37
2017-11-22T05:41:57.490Z,5.25
2017-11-22T05:44:25.287Z,4.90
2017-11-22T05:46:53.651Z,4.70
2017-11-22T05:49:22.052Z,5.60
2017-11-22T05:51:49.601Z,5.22
2017-11-22T05:54:17.814Z,4.68
2017-11-22T05:56:45.384Z,5.20
2017-11-22T05:59:12.871Z,4.28
2017-11-22T06:01:40.403Z,5.20
2017-11-22T06:04:07.926Z,4.40
2017-11-22T06:06:35.471Z,4.68
2017-11-22T06:09:02.956Z,4.70
2017-11-22T06:11:30.423Z,5.35
2017-11-22T06:13:57.906Z,6.05
2017-11-22T06:16:25.540Z,4.82
2017-11-22T06:18:53.363Z,4.90
2017-11-22T06:21:20.908Z,5.00
2017-11-22T06:23:49.227Z,5.10
2017-11-22T06:26:16.718Z,6.10
2017-11-22T06:28:44.262Z,5.85
2017-11-22T06:31:11.752Z,6.25
2017-11-22T06:33:39.283Z,4.47
2017-11-22T06:36:06.916Z,4.80
2017-11-22T06:38:34.393Z,5.32
2017-11-22T06:41:01.871Z,5.25
2017-11-22T06:43:29.387Z,4.90
2017-11-22T06:45:56.859Z,4.78
2017-11-22T06:48:24.429Z,4.90
2017-11-22T06:50:52.023Z,4.82
2017-11-22T06:53:19.567Z,5.20
2017-11-22T06:55:47.105Z,6.50
2017-11-22T06:58:14.571Z,4.47
2017-11-22T07:00:42.038Z,4.90
2017-11-22T07:03:09.667Z,5.28
2017-11-22T07:05:37.220Z,5.47
2017-11-22T07:08:04.921Z,10.65
2017-11-22T07:10:32.415Z,6.87
2017-11-22T07:12:59.896Z,5.45
2017-11-22T07:15:27.475Z,5.40
2017-11-22T07:17:55.034Z,5.95
2017-11-22T07:20:22.573Z,4.95
2017-11-22T07:22:50.039Z,5.53
2017-11-22T07:25:17.513Z,6.25
2017-11-22T07:27:45.058Z,6.05
2017-11-22T07:30:12.535Z,5.97
2017-11-22T07:32:40.092Z,6.07
2017-11-22T07:35:07.661Z,5.18
2017-11-22T07:37:36.777Z,5.20
2017-11-22T07:40:04.278Z,6.37
2017-11-22T07:42:31.764Z,5.97
2017-11-22T07:44:59.269Z,7.62
2017-11-22T07:47:26.748Z,10.40
2017-11-22T07:49:54.355Z,7.07
2017-11-22T07:52:22.839Z,7.43
2017-11-22T07:54:51.258Z,6.10
2017-11-22T07:57:33.337Z,12.07
2017-11-22T08:00:00.804Z,7.12
2017-11-22T08:02:28.287Z,6.72
2017-11-22T08:04:55.868Z,7.05
2017-11-22T08:07:23.370Z,6.18
2017-11-22T08:09:50.946Z,7.68
2017-11-22T08:12:18.432Z,5.97
2017-11-22T08:14:45.913Z,6.85
2017-11-22T08:17:14.239Z,7.70
2017-11-22T08:19:41.718Z,8.23
2017-11-22T08:22:09.662Z,7.00
2017-11-22T08:24:37.296Z,7.07
2017-11-22T08:27:04.985Z,6.90
2017-11-22T08:29:32.435Z,8.20
2017-11-22T08:31:59.939Z,8.25
2017-11-22T08:34:27.399Z,6.93
2017-11-22T08:36:54.882Z,7.22
2017-11-22T08:39:22.499Z,9.07
2017-11-22T08:41:50.051Z,8.02
2017-11-22T08:44:17.546Z,8.73
2017-11-22T08:46:45.069Z,7.03
2017-11-22T08:49:12.628Z,8.18
2017-11-22T08:51:40.103Z,7.70
2017-11-22T08:54:13.146Z,8.20
2017-11-22T08:56:46.338Z,7.22
2017-11-22T08:59:13.923Z,7.00
2017-11-22T09:01:41.407Z,10.38
2017-11-22T09:04:09.669Z,6.65
2017-11-22T09:06:38.944Z,6.45
2017-11-22T09:09:06.516Z,7.50
2017-11-22T09:11:34.000Z,6.95
2017-11-22T09:14:02.340Z,7.53
2017-11-22T09:16:29.903Z,7.60
2017-11-22T09:19:00.301Z,7.40
2017-11-22T09:21:27.876Z,9.18
2017-11-22T09:23:55.352Z,7.30
2017-11-22T09:26:22.824Z,6.60
2017-11-22T09:28:50.369Z,6.50
2017-11-22T09:31:23.601Z,7.43
2017-11-22T09:33:56.693Z,8.18
2017-11-22T09:36:30.731Z,6.80
2017-11-22T09:38:58.323Z,7.57
2017-11-22T09:41:25.935Z,7.45
2017-11-22T09:43:53.426Z,6.40
2017-11-22T09:46:20.909Z,7.32
2017-11-22T09:48:48.395Z,9.48
2017-11-22T09:51:16.635Z,9.00
2017-11-22T09:53:44.166Z,7.47
2017-11-22T09:56:11.669Z,7.68
2017-11-22T09:58:40.062Z,7.05
2017-11-22T10:01:07.709Z,7.50
2017-11-22T10:03:35.167Z,7.80
2017-11-22T10:06:03.399Z,6.90
2017-11-22T10:08:30.957Z,8.82
2017-11-22T10:10:58.446Z,6.87
2017-11-22T10:13:26.738Z,7.45
2017-11-22T10:15:54.967Z,7.97
2017-11-22T10:18:28.363Z,6.35
2017-11-22T10:20:55.847Z,7.25
2017-11-22T10:23:28.282Z,6.32
2017-11-22T10:25:58.226Z,5.78
2017-11-22T10:28:25.803Z,6.95
2017-11-22T10:30:54.143Z,7.40
2017-11-22T10:33:26.503Z,6.35
2017-11-22T10:35:53.969Z,6.45
2017-11-22T10:38:21.448Z,9.43
2017-11-22T10:40:48.993Z,7.07
2017-11-22T10:43:16.518Z,6.50
2017-11-22T10:45:44.061Z,5.93
2017-11-22T10:48:11.532Z,7.03
2017-11-22T10:50:39.114Z,9.10
2017-11-22T10:53:06.676Z,5.82
2017-11-22T10:55:34.265Z,6.30
2017-11-22T10:58:01.839Z,5.82
2017-11-22T11:00:29.398Z,5.53
2017-11-22T11:02:57.637Z,5.87
2017-11-22T11:05:25.111Z,6.65
2017-11-22T11:07:53.357Z,7.07
2017-11-22T11:10:20.844Z,6.35
2017-11-22T11:12:49.091Z,10.02
2017-11-22T11:15:16.783Z,6.18
2017-11-22T11:17:44.499Z,7.43
2017-11-22T11:20:12.069Z,6.18
2017-11-22T11:22:39.632Z,6.10
2017-11-22T11:25:07.111Z,6.65
2017-11-22T11:27:34.652Z,7.20
2017-11-22T11:30:02.211Z,5.97
2017-11-22T11:32:29.797Z,6.40
2017-11-22T11:34:57.330Z,6.20
2017-11-22T11:37:24.819Z,6.18
2017-11-22T11:39:53.160Z,5.37
2017-11-22T11:42:20.631Z,6.15
2017-11-22T11:44:48.172Z,6.32
2017-11-22T11:47:15.705Z,7.18
2017-11-22T11:49:43.229Z,5.85
2017-11-22T11:52:11.500Z,5.50
2017-11-22T11:54:38.977Z,5.35
2017-11-22T11:57:06.459Z,5.40
2017-11-22T11:59:33.926Z,6.07
2017-11-22T12:02:01.575Z,5.82
2017-11-22T12:04:29.435Z,5.60
2017-11-22T12:06:57.149Z,5.65
2017-11-22T12:09:25.631Z,5.00
2017-11-22T12:11:53.159Z,5.62
2017-11-22T12:14:20.666Z,6.10
2017-11-22T12:16:48.903Z,6.03
2017-11-22T12:19:16.375Z,7.07
2017-11-22T12:21:49.591Z,7.53
2017-11-22T12:24:19.011Z,5.47
2017-11-22T12:26:46.514Z,7.00
2017-11-22T12:29:13.966Z,7.00
2017-11-22T12:31:42.231Z,4.97
2017-11-22T12:34:09.713Z,4.93
2017-11-22T12:36:37.215Z,5.30
2017-11-22T12:39:04.874Z,5.82
2017-11-22T12:41:32.356Z,5.95
2017-11-22T12:43:59.844Z,7.97
2017-11-22T12:46:27.329Z,5.00
2017-11-22T12:48:55.682Z,5.90
2017-11-22T12:51:23.132Z,5.60
2017-11-22T12:53:50.618Z,4.87
2017-11-22T12:56:18.092Z,5.45
2017-11-22T12:58:45.592Z,5.65
2017-11-22T13:01:13.080Z,4.78
2017-11-22T13:03:41.327Z,6.57
2017-11-22T13:06:08.883Z,5.65
2017-11-22T13:08:36.512Z,7.03
2017-11-22T13:11:10.114Z,4.68
2017-11-22T13:13:37.582Z,5.30
2017-11-22T13:16:05.152Z,5.12
2017-11-22T13:18:32.712Z,5.45
2017-11-22T13:21:00.246Z,4.75
2017-11-22T13:23:28.010Z,5.10
2017-11-22T13:25:55.595Z,6.18
2017-11-22T13:28:23.215Z,5.40
2017-11-22T13:30:51.439Z,5.32
2017-11-22T13:33:18.915Z,4.90
2017-11-22T13:35:47.265Z,5.55
2017-11-22T13:38:14.739Z,5.82
2017-11-22T13:40:42.271Z,6.90
2017-11-22T13:43:09.844Z,4.78
2017-11-22T13:45:37.324Z,5.60
2017-11-22T13:48:05.646Z,5.15
2017-11-22T13:50:33.107Z,5.50
2017-11-22T13:53:00.686Z,5.85
2017-11-22T13:55:28.248Z,7.95
2017-11-22T13:57:55.735Z,5.50
2017-11-22T14:00:24.037Z,6.87
2017-11-22T14:02:51.624Z,7.37
2017-11-22T14:05:19.175Z,5.85
2017-11-22T14:07:46.643Z,5.15
2017-11-22T14:10:14.203Z,6.62
2017-11-22T14:12:41.766Z,7.40
2017-11-22T14:15:09.252Z,5.72
2017-11-22T14:17:36.784Z,7.12
2017-11-22T14:20:04.620Z,4.95
2017-11-22T14:22:32.147Z,7.70
2017-11-22T14:24:59.669Z,4.78
2017-11-22T14:27:27.163Z,4.50
2017-11-22T14:29:55.403Z,5.50
2017-11-22T14:32:22.889Z,4.97
2017-11-22T14:34:51.150Z,4.95
2017-11-22T14:37:18.671Z,4.05
2017-11-22T14:39:46.196Z,4.68
2017-11-22T14:42:14.415Z,5.80
2017-11-22T14:44:42.700Z,6.28
2017-11-22T14:47:10.182Z,4.30
2017-11-22T14:49:38.439Z,6.10
2017-11-22T14:52:05.914Z,4.20
2017-11-22T14:54:33.435Z,3.85
2017-11-22T14:57:01.051Z,4.80
2017-11-22T14:59:28.568Z,5.35
2017-11-22T15:01:56.120Z,4.07
2017-11-22T15:04:23.595Z,5.25
2017-11-22T15:06:51.142Z,5.40
2017-11-22T15:09:18.718Z,4.18
2017-11-22T15:11:47.351Z,3.97
2017-11-22T15:14:14.994Z,5.35
2017-11-22T15:16:42.501Z,6.15
2017-11-22T15:19:09.977Z,4.35
2017-11-22T15:21:38.233Z,3.70
2017-11-22T15:24:05.690Z,4.47
2017-11-22T15:26:33.927Z,4.30
2017-11-22T15:29:01.443Z,3.95
2017-11-22T15:31:29.764Z,3.55
2017-11-22T15:33:57.315Z,5.15
2017-11-22T15:36:24.795Z,4.28
2017-11-22T15:38:52.291Z,3.92
2017-11-22T15:41:19.819Z,4.25
2017-11-22T15:43:47.339Z,4.18
2017-11-22T15:46:15.710Z,4.35
2017-11-22T15:48:43.285Z,3.55
2017-11-22T15:51:10.794Z,3.90
2017-11-22T15:53:38.259Z,4.10
2017-11-22T15:56:06.603Z,5.53
2017-11-22T15:58:34.083Z,4.72
2017-11-22T16:01:01.593Z,3.50
2017-11-22T16:03:29.215Z,4.65
2017-11-22T16:05:56.813Z,4.20
2017-11-22T16:08:24.304Z,4.15
2017-11-22T16:10:51.854Z,4.07
2017-11-22T16:13:19.412Z,4.43
2017-11-22T16:15:46.923Z,4.15
2017-11-22T16:18:14.533Z,4.68
2017-11-22T16:20:42.097Z,4.45
2017-11-22T16:23:09.552Z,5.20
2017-11-22T16:25:37.039Z,8.02
2017-11-22T16:28:05.295Z,5.05
2017-11-22T16:30:32.779Z,4.22
2017-11-22T16:33:01.120Z,6.35
2017-11-22T16:35:28.650Z,5.80
2017-11-22T16:37:56.122Z,4.90
2017-11-22T16:40:24.614Z,5.90
2017-11-22T16:42:52.082Z,9.65
2017-11-22T16:45:19.641Z,21.27
2017-11-22T16:47:47.123Z,21.85
2017-11-22T16:50:15.526Z,25.83
2017-11-22T16:52:43.188Z,15.57
2017-11-22T16:55:11.059Z,15.93
2017-11-22T16:57:38.594Z,17.30
2017-11-22T17:00:06.095Z,15.75
2017-11-22T17:02:33.566Z,7.57
2017-11-22T17:05:01.127Z,14.13
2017-11-22T17:07:28.615Z,11.45
2017-11-22T17:09:56.864Z,7.70
2017-11-22T17:12:24.449Z,10.65
2017-11-22T17:14:51.998Z,9.85
2017-11-22T17:17:19.524Z,8.40
2017-11-22T17:19:47.010Z,7.12
2017-11-22T17:22:15.270Z,10.95
2017-11-22T17:24:42.783Z,8.00
2017-11-22T17:27:10.314Z,7.55
2017-11-22T17:29:38.627Z,7.15
2017-11-22T17:32:06.215Z,9.65
2017-11-22T17:34:33.701Z,8.63
2017-11-22T17:37:01.935Z,7.90
2017-11-22T17:39:29.522Z,13.40
2017-11-22T17:41:57.039Z,8.45
2017-11-22T17:44:24.811Z,9.95
2017-11-22T17:46:52.460Z,12.80
2017-11-22T17:49:19.949Z,8.57
2017-11-22T17:51:47.446Z,9.43
2017-11-22T17:54:14.936Z,13.50
2017-11-22T17:56:42.537Z,12.15
2017-11-22T17:59:10.047Z,6.65
2017-11-22T18:01:37.612Z,9.45
2017-11-22T18:04:05.197Z,12.70
2017-11-22T18:06:33.031Z,5.72
2017-11-22T18:09:00.501Z,6.10
2017-11-22T18:11:27.994Z,9.27
2017-11-22T18:13:55.507Z,6.65
2017-11-22T18:16:23.128Z,9.68
2017-11-22T18:18:51.536Z,5.68
2017-11-22T18:21:19.026Z,6.72
2017-11-22T18:23:46.499Z,10.10
2017-11-22T18:26:14.428Z,8.70
2017-11-22T18:28:42.013Z,6.47
2017-11-22T18:31:09.720Z,5.97
2017-11-22T18:33:38.121Z,8.73
2017-11-22T18:36:05.755Z,5.20
2017-11-22T18:38:33.250Z,8.48
2017-11-22T18:41:00.825Z,5.37
2017-11-22T18:43:28.407Z,7.43
2017-11-22T18:45:55.900Z,7.60
2017-11-22T18:48:23.445Z,9.82
2017-11-22T18:50:50.983Z,6.70
2017-11-22T18:53:19.240Z,9.07
2017-11-22T18:55:48.324Z,6.45
2017-11-22T18:58:15.816Z,7.28
2017-11-22T19:00:44.063Z,6.00
2017-11-22T19:03:11.623Z,6.55
2017-11-22T19:05:39.113Z,5.72
2017-11-22T19:08:07.384Z,7.15
2017-11-22T19:10:35.698Z,6.10
2017-11-22T19:13:03.171Z,5.25
2017-11-22T19:15:30.655Z,6.85
2017-11-22T19:17:58.167Z,6.00
2017-11-22T19:20:25.806Z,5.45
2017-11-22T19:22:53.442Z,5.37
2017-11-22T19:25:21.055Z,6.35
2017-11-22T19:27:48.532Z,10.27
2017-11-22T19:30:16.099Z,8.00
2017-11-22T19:32:43.591Z,5.15
2017-11-22T19:35:11.832Z,6.85
2017-11-22T19:37:39.395Z,8.30
2017-11-22T19:40:07.021Z,5.32
2017-11-22T19:42:34.544Z,5.12
2017-11-22T19:45:02.798Z,6.20
2017-11-22T19:47:31.157Z,7.90
2017-11-22T19:49:58.632Z,5.20
2017-11-22T19:52:26.185Z,5.72
2017-11-22T19:54:53.901Z,5.65
2017-11-22T19:57:21.443Z,4.68
2017-11-22T19:59:48.943Z,5.90
2017-11-22T20:02:16.503Z,7.07
2017-11-22T20:04:44.069Z,5.95
2017-11-22T20:07:23.358Z,6.37
2017-11-22T20:09:50.976Z,7.05
2017-11-22T20:12:18.529Z,5.65
2017-11-22T20:14:46.036Z,5.15
2017-11-22T20:17:13.631Z,5.78
2017-11-22T20:19:41.216Z,5.90
2017-11-22T20:22:09.673Z,5.70
2017-11-22T20:24:37.311Z,5.68
2017-11-22T20:27:04.790Z,4.97
2017-11-22T20:29:32.276Z,5.40
2017-11-22T20:32:00.607Z,8.43
2017-11-22T20:34:28.136Z,5.55
2017-11-22T20:36:55.982Z,4.95
2017-11-22T20:39:24.602Z,6.47
2017-11-22T20:41:52.245Z,5.22
2017-11-22T20:44:19.778Z,4.53
2017-11-22T20:46:47.268Z,5.53
2017-11-22T20:49:14.832Z,6.90
2017-11-22T20:51:42.433Z,4.50
2017-11-22T20:54:10.167Z,4.80
2017-11-22T20:56:37.713Z,5.87
2017-11-22T20:59:05.192Z,8.40
2017-11-22T21:01:32.672Z,6.57
2017-11-22T21:04:00.202Z,5.37
2017-11-22T21:06:27.723Z,5.32
2017-11-22T21:08:55.244Z,6.10
2017-11-22T21:11:22.799Z,4.25
2017-11-22T21:13:50.356Z,4.40
2017-11-22T21:16:18.024Z,5.40
2017-11-22T21:18:45.755Z,4.60
2017-11-22T21:21:13.396Z,5.30
2017-11-22T21:23:41.019Z,5.55
2017-11-22T21:26:08.508Z,5.62
2017-11-22T21:28:36.815Z,5.28
2017-11-22T21:31:04.344Z,4.45
2017-11-22T21:33:31.828Z,4.95
2017-11-22T21:35:59.375Z,5.03
2017-11-22T21:38:27.030Z,4.55
2017-11-22T21:40:54.536Z,5.80
2017-11-22T21:43:22.048Z,5.72
2017-11-22T21:45:49.520Z,4.60
2017-11-22T21:48:17.099Z,6.00
2017-11-22T21:50:44.718Z,5.47
2017-11-22T21:53:12.216Z,4.78
2017-11-22T21:55:39.784Z,5.47
2017-11-22T21:58:07.273Z,7.00
2017-11-22T22:00:35.569Z,6.43
2017-11-22T22:03:03.345Z,5.43
2017-11-22T22:05:31.021Z,6.00
2017-11-22T22:07:59.605Z,6.05
2017-11-22T22:10:27.081Z,5.15
2017-11-22T22:12:54.598Z,4.25
2017-11-22T22:15:22.900Z,5.00
2017-11-22T22:17:50.444Z,6.45
2017-11-22T22:20:18.057Z,4.62
2017-11-22T22:22:45.593Z,6.95
2017-11-22T22:25:13.160Z,5.65
2017-11-22T22:27:42.183Z,5.12
2017-11-22T22:30:09.698Z,8.55
2017-11-22T22:32:37.267Z,4.78
2017-11-22T22:35:04.751Z,8.23
2017-11-22T22:37:33.003Z,8.90
2017-11-22T22:40:00.534Z,4.28
2017-11-22T22:42:28.083Z,7.32
2017-11-22T22:44:55.663Z,6.05
2017-11-22T22:47:23.153Z,10.75
2017-11-22T22:49:51.407Z,10.25
2017-11-22T22:52:18.887Z,5.18
2017-11-22T22:54:47.123Z,6.28
2017-11-22T22:57:14.655Z,5.32
2017-11-22T22:59:42.323Z,5.18
2017-11-22T23:02:09.821Z,7.25
2017-11-22T23:04:37.338Z,6.22
2017-11-22T23:07:04.851Z,10.93
2017-11-22T23:09:33.176Z,5.93
2017-11-22T23:12:00.676Z,7.45
2017-11-22T23:14:29.107Z,6.80
2017-11-22T23:16:56.646Z,8.20
2017-11-22T23:19:24.127Z,5.30
2017-11-22T23:21:51.595Z,7.60
2017-11-22T23:24:19.167Z,7.18
2017-11-22T23:26:46.678Z,6.30
2017-11-22T23:29:14.357Z,6.55
2017-11-22T23:31:41.913Z,7.50
2017-11-22T23:34:09.380Z,6.30
2017-11-22T23:36:36.854Z,6.62
2017-11-22T23:39:04.329Z,8.73
2017-11-22T23:41:31.884Z,8.20
2017-11-22T23:43:59.355Z,6.90
2017-11-22T23:46:27.675Z,4.57
2017-11-22T23:48:55.264Z,5.97
2017-11-22T23:51:22.739Z,6.65
2017-11-22T23:53:50.227Z,5.60
2017-11-22T23:56:17.704Z,7.93
2017-11-22T23:58:45.232Z,5.53
